Time;durP1;ratioP1;P1;durP2;ratioP2;P2;SDS_P1;SDS_P2;PMS_P1;PMS_P2;Temp;Humidity;BMP_temperature;BMP_pressure;BME280_temperature;BME280_humidity;BME280_pressure;Samples;Min_cycle;Max_cycle;Signal;HPM_P1;HPM_P2
2021/12/19 00:10:32;;;;;;;3.88;2.92;;;;;;;6.31;71.60;102150.84;4829067;29;20041;-89
2021/12/19 00:12:58;;;;;;;4.40;2.92;;;;;;;6.02;71.51;102094.56;4818150;29;20037;-90
2021/12/19 00:15:39;;;;;;;5.68;3.55;;;;;;;6.37;71.41;102150.50;4829940;29;20049;-90
2021/12/19 00:18:07;;;;;;;4.90;3.20;;;;;;;6.08;71.26;102117.59;4819760;29;20038;-91
2021/12/19 00:20:46;;;;;;;6.15;3.50;;;;;;;6.07;71.35;102110.56;4834561;29;20029;-90
2021/12/19 00:23:14;;;;;;;5.05;3.38;;;;;;;6.14;71.12;102120.75;4847173;29;20115;-90
2021/12/19 00:25:45;;;;;;;5.88;3.58;;;;;;;6.19;71.39;102129.88;4842453;29;20036;-90
2021/12/19 00:28:17;;;;;;;4.38;3.03;;;;;;;6.14;71.25;102112.97;4834231;29;20021;-91
2021/12/19 00:30:44;;;;;;;5.43;3.38;;;;;;;6.13;71.30;102111.13;4829695;29;20112;-90
2021/12/19 00:33:17;;;;;;;3.97;2.95;;;;;;;6.08;71.58;102110.69;4841419;29;20490;-90
2021/12/19 00:35:59;;;;;;;4.38;3.30;;;;;;;6.17;71.28;102121.03;4833657;29;20060;-91
2021/12/19 00:38:32;;;;;;;5.28;3.30;;;;;;;6.28;71.40;102128.09;4826284;29;20049;-91
2021/12/19 00:41:01;;;;;;;6.10;3.20;;;;;;;6.41;71.48;102150.00;4828866;29;20030;-91
2021/12/19 00:43:54;;;;;;;5.15;3.08;;;;;;;6.35;71.22;102144.25;4817326;29;20054;-92
2021/12/19 00:46:25;;;;;;;4.63;2.95;;;;;;;5.97;71.18;102077.69;4817486;29;20042;-92
2021/12/19 00:48:59;;;;;;;4.45;2.92;;;;;;;6.35;71.38;102144.25;4826520;29;20022;-92
2021/12/19 00:51:26;;;;;;;5.22;3.00;;;;;;;6.37;71.05;102132.34;4817735;29;20090;-92
2021/12/19 00:54:09;;;;;;;4.80;3.20;;;;;;;6.17;71.48;102101.97;4820265;29;20207;-93
2021/12/19 00:56:44;;;;;;;5.40;2.88;;;;;;;6.39;71.13;102126.53;4818880;29;20576;-90
2021/12/19 00:59:13;;;;;;;5.38;3.47;;;;;;;6.36;71.10;102127.94;4811218;29;20090;-93
2021/12/19 01:01:50;;;;;;;4.38;2.97;;;;;;;6.29;71.37;102108.28;4808164;29;20034;-92
2021/12/19 01:04:34;;;;;;;;;;;;;;;6.38;71.30;102109.13;4816998;29;20040;-91
2021/12/19 01:07:03;;;;;;;3.60;2.75;;;;;;;6.32;71.23;102100.78;4810604;29;20365;-91
2021/12/19 01:09:30;;;;;;;4.88;3.00;;;;;;;6.25;70.94;102082.84;4808481;29;20038;-91
2021/12/19 01:11:59;;;;;;;4.63;2.97;;;;;;;6.13;71.29;102076.50;4819297;29;20599;-91
2021/12/19 01:15:13;;;;;;;3.50;2.70;;;;;;;6.32;71.35;102103.38;4822525;29;20089;-92
2021/12/19 01:17:40;;;;;;;4.53;2.88;;;;;;;6.12;71.03;102075.59;4812143;29;20512;-94
2021/12/19 01:20:23;;;;;;;3.80;2.85;;;;;;;6.03;70.83;102039.38;4807695;29;20033;-94
2021/12/19 01:23:25;;;;;;;5.25;2.92;;;;;;;6.28;71.03;102104.75;4822535;29;20038;-92
2021/12/19 01:25:51;;;;;;;4.03;3.00;;;;;;;6.25;71.53;102086.34;4830387;29;20112;-93
2021/12/19 01:28:31;;;;;;;4.07;2.85;;;;;;;6.31;71.37;102086.91;4819668;29;20037;-93
2021/12/19 01:31:06;;;;;;;3.45;2.70;;;;;;;6.35;71.41;102090.69;4815048;29;20041;-93
2021/12/19 01:33:41;;;;;;;4.22;2.90;;;;;;;6.18;70.92;102051.91;4814260;29;20030;-92
2021/12/19 01:36:12;;;;;;;4.68;3.05;;;;;;;6.27;71.16;102086.50;4819801;29;20508;-92
2021/12/19 01:38:39;;;;;;;3.03;2.50;;;;;;;6.13;70.78;102056.66;4799954;29;20033;-92
2021/12/19 01:41:17;;;;;;;4.57;3.22;;;;;;;6.14;71.15;102050.72;4805953;29;20031;-91
2021/12/19 01:43:51;;;;;;;5.15;3.10;;;;;;;6.08;71.54;102053.66;4820990;29;20464;-92
2021/12/19 01:46:17;;;;;;;3.92;2.80;;;;;;;6.01;70.99;102033.13;4828669;29;20478;-91
2021/12/19 01:48:47;;;;;;;3.97;2.90;;;;;;;6.30;71.38;102087.66;4833904;29;20029;-91
2021/12/19 01:51:31;;;;;;;4.50;3.10;;;;;;;6.11;71.32;102056.50;4828583;29;20101;-92
2021/12/19 01:54:05;;;;;;;4.65;2.80;;;;;;;6.26;71.39;102077.75;4818294;29;20066;-91
2021/12/19 01:56:37;;;;;;;4.47;2.80;;;;;;;6.29;71.46;102077.16;4826783;29;20052;-91
2021/12/19 01:59:10;;;;;;;5.45;2.90;;;;;;;6.05;71.10;102040.41;4869841;29;20082;-92
2021/12/19 02:01:51;;;;;;;4.50;2.90;;;;;;;6.15;71.44;102042.16;4828522;29;20034;-92
2021/12/19 02:04:18;;;;;;;3.83;2.78;;;;;;;6.27;71.21;102063.13;4844516;29;20124;-91
2021/12/19 02:06:49;;;;;;;4.25;2.97;;;;;;;6.28;71.11;102059.75;4859633;29;20033;-92
2021/12/19 02:09:21;;;;;;;4.35;2.90;;;;;;;5.88;71.29;102001.59;4863133;29;20033;-92
2021/12/19 02:11:55;;;;;;;5.20;3.03;;;;;;;6.07;71.23;102019.78;4846774;29;20112;-92
2021/12/19 02:14:28;;;;;;;4.00;2.78;;;;;;;6.31;70.94;102054.88;4819526;29;20116;-91
2021/12/19 02:16:57;;;;;;;5.03;2.75;;;;;;;6.14;71.12;102016.06;4825119;29;20073;-92
2021/12/19 02:19:28;;;;;;;5.03;3.10;;;;;;;6.16;70.96;102025.84;4828916;29;20033;-92
2021/12/19 02:22:09;;;;;;;4.63;2.97;;;;;;;6.04;70.86;102006.56;4828581;29;20038;-91
2021/12/19 02:24:42;;;;;;;4.05;2.70;;;;;;;6.29;71.40;102051.22;4842598;29;20048;-92
2021/12/19 02:27:08;;;;;;;3.50;2.60;;;;;;;6.09;70.93;102010.47;4870164;29;20074;-92
2021/12/19 02:30:21;;;;;;;3.10;2.45;;;;;;;6.34;70.97;102052.53;4836824;29;20056;-91
2021/12/19 02:32:51;;;;;;;3.28;2.42;;;;;;;6.27;71.27;102053.66;4859677;29;20025;-89
2021/12/19 02:35:23;;;;;;;4.70;3.00;;;;;;;6.28;71.29;102046.78;4842851;29;20013;-91
2021/12/19 02:49:54;;;;;;;3.90;2.70;;;;;;;6.08;71.44;102011.25;4836659;29;20507;-91
2021/12/19 02:52:21;;;;;;;3.85;2.70;;;;;;;6.03;71.19;101990.09;4831680;29;20038;-93
2021/12/19 02:55:19;;;;;;;3.55;2.65;;;;;;;6.27;71.05;102022.53;4830561;29;20033;-92
2021/12/19 02:58:04;;;;;;;3.80;2.72;;;;;;;6.22;71.20;102020.28;4855160;29;20037;-91
2021/12/19 03:01:01;;;;;;;3.78;2.67;;;;;;;6.27;71.12;102021.63;4815879;29;20037;-93
2021/12/19 03:03:46;;;;;;;3.90;3.00;;;;;;;6.27;70.68;102021.63;4846512;29;20029;-92
2021/12/19 03:06:28;;;;;;;4.00;2.70;;;;;;;5.98;71.15;101988.75;4831272;29;20033;-94
2021/12/19 03:18:17;;;;;;;3.78;2.65;;;;;;;6.08;71.10;101980.13;4841650;29;20420;-92
2021/12/19 03:20:55;;;;;;;4.47;2.97;;;;;;;6.21;70.95;102011.59;4825779;29;20037;-92
2021/12/19 03:24:14;;;;;;;5.13;3.03;;;;;;;6.28;70.89;102002.69;4853369;29;20041;-92
2021/12/19 03:27:21;;;;;;;3.92;2.83;;;;;;;6.27;70.78;101995.69;4835372;29;20030;-91
2021/12/19 03:29:51;;;;;;;3.83;2.70;;;;;;;6.04;70.91;101958.19;4840979;29;20556;-92
2021/12/19 03:32:19;;;;;;;4.55;2.78;;;;;;;5.85;70.90;101932.22;4837726;29;20041;-92
2021/12/19 03:38:15;;;;;;;4.72;3.03;;;;;;;6.25;70.85;101984.25;4862814;29;20503;-92
2021/12/19 03:41:21;;;;;;;4.90;2.60;;;;;;;6.17;71.13;101980.06;4846177;29;20162;-91
2021/12/19 03:43:49;;;;;;;4.40;2.92;;;;;;;5.94;71.30;101952.00;4820463;29;20046;-91
2021/12/19 03:46:18;;;;;;;4.25;3.10;;;;;;;5.96;71.13;101941.03;4830999;29;20032;-90
2021/12/19 03:48:53;;;;;;;5.93;3.03;;;;;;;6.03;70.69;101942.47;4845500;29;20104;-88
2021/12/19 03:51:25;;;;;;;5.57;3.10;;;;;;;5.91;71.01;101932.78;4817676;29;20022;-89
2021/12/19 03:53:56;;;;;;;5.15;3.05;;;;;;;5.98;70.72;101920.44;4804241;29;20068;-89
2021/12/19 03:56:28;;;;;;;5.20;3.05;;;;;;;6.02;70.88;101936.41;4834642;29;20026;-89
2021/12/19 03:59:07;;;;;;;4.95;3.03;;;;;;;5.98;70.65;101931.69;4830060;29;20133;-93
2021/12/19 04:01:33;;;;;;;4.78;3.05;;;;;;;5.84;71.00;101908.75;4826834;29;20029;-91
2021/12/19 04:04:12;;;;;;;4.55;2.92;;;;;;;6.20;70.55;101951.78;4842311;29;20099;-89
2021/12/19 04:06:42;;;;;;;5.90;3.30;;;;;;;6.00;70.22;101912.00;4830801;29;20026;-91
2021/12/19 04:09:11;;;;;;;4.15;2.95;;;;;;;6.00;70.62;101911.09;4829830;29;20120;-90
2021/12/19 04:11:51;;;;;;;5.85;2.85;;;;;;;5.88;70.63;101896.22;4829915;29;20126;-89
2021/12/19 04:14:19;;;;;;;4.22;2.85;;;;;;;6.09;70.29;101933.56;4815716;29;20117;-90
2021/12/19 04:16:52;;;;;;;5.57;3.15;;;;;;;5.87;70.67;101903.88;4830065;29;20037;-91
2021/12/19 04:19:34;;;;;;;4.68;3.08;;;;;;;6.00;70.83;101935.34;4816850;29;20061;-92
2021/12/19 04:22:04;;;;;;;4.28;2.78;;;;;;;5.83;70.84;101892.28;4804697;29;20404;-92
2021/12/19 04:24:33;;;;;;;4.38;2.75;;;;;;;5.92;70.74;101911.25;4808998;29;20023;-92
2021/12/19 04:27:11;;;;;;;4.80;3.05;;;;;;;5.73;70.73;101879.25;4806403;29;20439;-90
2021/12/19 04:29:38;;;;;;;5.78;3.25;;;;;;;6.02;70.81;101930.31;4830802;29;20500;-91
2021/12/19 04:32:18;;;;;;;6.18;3.13;;;;;;;6.13;70.73;101945.16;4811605;29;20053;-92
2021/12/19 04:34:50;;;;;;;5.10;3.10;;;;;;;5.97;70.72;101910.81;4803116;29;20046;-91
2021/12/19 04:40:17;;;;;;;4.25;2.95;;;;;;;5.83;70.72;101881.03;4829186;29;20041;-93
2021/12/19 05:00:15;;;;;;;5.45;3.17;;;;;;;6.01;70.67;101910.31;4832009;29;20050;-95
2021/12/19 05:06:19;;;;;;;6.32;3.50;;;;;;;6.06;70.37;101902.19;4811341;29;20037;-93
2021/12/19 05:14:15;;;;;;;4.68;3.03;;;;;;;5.95;70.51;101912.34;4830827;29;20044;-92
2021/12/19 05:16:52;;;;;;;4.43;2.90;;;;;;;5.77;70.79;101876.19;4819855;29;20473;-92
2021/12/19 05:19:28;;;;;;;;;;;;;;;6.22;70.18;101945.06;4800189;29;20104;-90
2021/12/19 05:21:59;;;;;;;3.90;2.60;;;;;;;5.96;70.37;101912.50;4805507;29;20319;-93
2021/12/19 05:27:24;;;;;;;5.60;3.42;;;;;;;6.16;70.57;101941.91;4835702;29;20042;-92
2021/12/19 05:29:58;;;;;;;5.10;3.17;;;;;;;5.98;70.61;101916.13;4802514;29;20034;-91
2021/12/19 05:32:34;;;;;;;4.55;2.90;;;;;;;6.03;70.80;101932.09;4819675;29;20088;-91
2021/12/19 05:35:27;;;;;;;4.32;2.92;;;;;;;6.04;70.61;101941.72;4825783;29;20038;-93
2021/12/19 05:46:29;;;;;;;4.50;2.95;;;;;;;5.82;70.84;101894.75;4846635;29;20186;-91
2021/12/19 05:52:51;;;;;;;4.63;3.03;;;;;;;6.12;70.72;101925.19;4853077;29;20095;-92
2021/12/19 05:55:39;;;;;;;4.82;3.33;;;;;;;6.11;70.56;101919.06;4841796;29;20029;-92
2021/12/19 05:58:20;;;;;;;4.50;2.70;;;;;;;5.99;70.50;101885.94;4836312;29;20037;-92
2021/12/19 06:00:46;;;;;;;4.05;2.95;;;;;;;6.08;70.41;101903.25;4839417;29;20055;-89
2021/12/19 06:03:49;;;;;;;5.57;3.38;;;;;;;6.08;70.59;101915.31;4825411;29;20045;-91
2021/12/19 06:06:46;;;;;;;4.55;3.05;;;;;;;6.04;70.82;101913.22;4837988;29;20033;-95
2021/12/19 06:09:18;;;;;;;6.07;3.20;;;;;;;6.07;70.74;101909.19;4840670;29;20037;-95
2021/12/19 06:11:53;;;;;;;4.20;3.17;;;;;;;6.05;70.76;101907.22;4838649;29;20041;-92
2021/12/19 06:14:34;;;;;;;4.35;3.05;;;;;;;6.05;70.69;101909.81;4835807;29;20512;-96
2021/12/19 06:17:05;;;;;;;4.20;2.97;;;;;;;5.99;70.82;101904.09;4840290;29;20034;-91
2021/12/19 06:19:36;;;;;;;5.30;3.40;;;;;;;5.94;70.35;101879.41;4855683;29;20033;-92
2021/12/19 06:22:04;;;;;;;6.47;3.42;;;;;;;6.05;70.26;101897.78;4844943;29;20042;-94
2021/12/19 06:24:37;;;;;;;5.15;3.40;;;;;;;5.33;70.62;101799.59;4852563;29;20049;-93
2021/12/19 06:27:11;;;;;;;4.65;3.08;;;;;;;5.24;70.21;101756.53;4833772;29;20040;-94
2021/12/19 06:29:42;;;;;;;4.93;3.35;;;;;;;5.92;70.32;101864.59;4843114;29;20022;-94
2021/12/19 06:32:17;;;;;;;6.60;3.60;;;;;;;5.49;70.31;101789.84;4821910;29;20507;-94
2021/12/19 06:34:47;;;;;;;5.38;3.28;;;;;;;5.19;70.27;101744.88;4843751;29;20037;-94
2021/12/19 06:37:14;;;;;;;4.78;3.42;;;;;;;5.54;70.63;101816.19;4849786;29;20033;-94
2021/12/19 06:39:54;;;;;;;5.10;3.50;;;;;;;5.92;70.67;101892.22;4822306;29;21444;-94
2021/12/19 06:42:21;;;;;;;4.28;3.30;;;;;;;5.81;70.63;101872.19;4825979;29;20054;-92
2021/12/19 06:44:48;;;;;;;6.95;3.40;;;;;;;5.80;70.54;101871.28;4849854;29;20029;-93
2021/12/19 06:47:15;;;;;;;5.63;3.50;;;;;;;5.62;70.15;101826.47;4839467;29;20033;-94
2021/12/19 06:49:43;;;;;;;5.93;3.70;;;;;;;5.61;70.12;101806.53;4864033;29;20079;-95
2021/12/19 06:52:20;;;;;;;4.32;3.10;;;;;;;5.05;70.54;101733.22;4843316;29;20034;-92
2021/12/19 06:54:46;;;;;;;5.78;3.42;;;;;;;5.60;70.61;101824.50;4831676;29;20033;-93
2021/12/19 06:57:22;;;;;;;5.07;3.40;;;;;;;5.98;70.50;101885.03;4825545;29;20124;-93
2021/12/19 07:00:10;;;;;;;5.57;3.37;;;;;;;5.75;70.30;101844.03;4816517;29;20030;-95
2021/12/19 07:02:38;;;;;;;6.95;3.60;;;;;;;5.09;70.34;101724.97;4851184;29;20293;-95
2021/12/19 07:05:04;;;;;;;5.72;3.35;;;;;;;5.56;70.89;101817.22;4819089;29;20029;-94
2021/12/19 07:07:41;;;;;;;6.60;3.47;;;;;;;5.66;70.74;101817.28;4838770;29;20018;-94
2021/12/19 07:10:09;;;;;;;5.57;3.50;;;;;;;5.08;70.41;101715.41;4856409;29;20038;-93
2021/12/19 07:12:40;;;;;;;5.00;3.47;;;;;;;5.03;70.45;101701.13;4839369;29;20066;-93
2021/12/19 07:15:15;;;;;;;4.68;3.20;;;;;;;5.07;70.42;101705.81;4829510;29;20058;-95
2021/12/19 07:18:09;;;;;;;5.03;3.47;;;;;;;5.90;70.68;101860.06;4817584;29;20492;-93
2021/12/19 07:24:02;;;;;;;5.70;3.45;;;;;;;5.78;70.67;101839.16;4852225;29;20032;-94
2021/12/19 07:27:02;;;;;;;5.28;3.45;;;;;;;5.90;71.14;101849.69;4856145;29;20038;-95
2021/12/19 07:29:32;;;;;;;6.25;3.70;;;;;;;5.65;70.87;101815.47;4870182;29;20029;-92
2021/12/19 07:32:05;;;;;;;5.38;3.58;;;;;;;5.69;70.95;101814.97;4821356;29;20026;-90
2021/12/19 07:34:35;;;;;;;6.43;3.83;;;;;;;5.43;71.01;101758.22;4823807;29;20025;-89
2021/12/19 07:37:19;;;;;;;6.30;3.30;;;;;;;5.71;70.64;101809.19;4840786;29;20029;-92
2021/12/19 07:39:59;;;;;;;5.43;3.80;;;;;;;5.69;71.16;101817.56;4830628;29;20034;-89
2021/12/19 07:42:24;;;;;;;6.75;4.25;;;;;;;5.65;71.23;101815.47;4834715;29;20038;-89
2021/12/19 07:44:57;;;;;;;4.57;3.28;;;;;;;5.54;71.12;101796.34;4798664;29;20041;-90
2021/12/19 07:47:24;;;;;;;6.38;3.90;;;;;;;5.62;70.97;101800.56;4820491;29;20057;-90
2021/12/19 07:50:00;;;;;;;;;;;;;;;5.83;70.93;101843.03;4806249;29;20026;-88
2021/12/19 07:52:30;;;;;;;6.00;3.75;;;;;;;5.72;70.83;101829.13;4811001;29;20307;-89
2021/12/19 07:55:17;;;;;;;6.28;3.65;;;;;;;5.79;70.75;101822.81;4797390;29;20519;-92
2021/12/19 07:58:04;;;;;;;4.30;3.33;;;;;;;5.85;71.05;101820.75;4793787;29;20030;-91
2021/12/19 08:00:35;;;;;;;;;;;;;;;5.83;71.00;101824.00;4808668;29;20030;-88
2021/12/19 08:03:12;;;;;;;5.55;3.80;;;;;;;5.80;71.04;101836.66;4808916;29;19913;-92
2021/12/19 08:05:37;;;;;;;;;;;;;;;5.67;70.66;101788.00;4811223;29;20030;-87
2021/12/19 08:08:05;;;;;;;5.45;3.50;;;;;;;5.52;71.24;101774.56;4834188;29;19923;-89
2021/12/19 08:13:15;;;;;;;5.85;3.78;;;;;;;5.58;70.98;101777.72;4834778;29;20117;-93
2021/12/19 08:15:43;;;;;;;6.10;3.88;;;;;;;5.48;71.24;101765.63;4826290;29;20064;-91
2021/12/19 08:18:10;;;;;;;5.45;3.80;;;;;;;5.36;71.39;101737.72;4805373;29;20037;-91
2021/12/19 08:20:42;;;;;;;5.00;3.78;;;;;;;5.27;71.49;101714.47;4811254;29;20663;-90
2021/12/19 08:23:25;;;;;;;5.00;3.70;;;;;;;5.65;71.43;101777.53;4820044;29;20086;-88
2021/12/19 08:25:51;;;;;;;6.15;3.85;;;;;;;5.42;71.42;101736.59;4814099;29;20034;-88
2021/12/19 08:28:16;;;;;;;6.22;4.07;;;;;;;5.57;71.52;101767.25;4828390;29;20552;-88
2021/12/19 08:30:42;;;;;;;4.97;3.75;;;;;;;5.24;71.51;101709.03;4828993;29;20030;-90
2021/12/19 08:33:14;;;;;;;7.35;4.40;;;;;;;5.41;71.56;101723.50;4819191;29;20025;-89
2021/12/19 08:36:13;;;;;;;5.43;3.80;;;;;;;4.89;71.65;101631.69;4813587;29;20085;-88
2021/12/19 08:38:54;;;;;;;7.63;4.10;;;;;;;5.27;71.55;101689.50;4826292;29;20026;-90
2021/12/19 08:41:26;;;;;;;7.28;4.43;;;;;;;5.46;71.51;101709.25;4807840;29;20428;-89
2021/12/19 08:44:13;;;;;;;6.85;3.90;;;;;;;5.66;71.50;101744.75;4827985;29;20049;-89
2021/12/19 08:46:52;;;;;;;13.27;6.32;;;;;;;5.52;71.60;101722.75;4821096;29;20506;-88
2021/12/19 08:49:25;;;;;;;11.20;4.93;;;;;;;5.18;71.77;101660.16;4817082;29;20069;-90
2021/12/19 08:55:13;;;;;;;12.85;5.40;;;;;;;5.66;71.54;101747.34;4852270;29;20089;-92
2021/12/19 08:57:45;;;;;;;11.55;5.30;;;;;;;5.69;71.66;101745.94;4830691;29;20036;-91
2021/12/19 09:00:20;;;;;;;9.75;5.25;;;;;;;5.66;71.69;101735.28;4841151;29;20036;-93
2021/12/19 09:03:00;;;;;;;9.98;5.45;;;;;;;5.54;71.83;101705.69;4826411;29;20034;-93
2021/12/19 09:05:29;;;;;;;11.07;5.50;;;;;;;5.68;71.47;101719.88;4831899;29;20088;-89
2021/12/19 09:07:56;;;;;;;11.73;5.40;;;;;;;5.58;71.90;101709.47;4845693;29;20048;-93
2021/12/19 09:10:24;;;;;;;9.27;5.65;;;;;;;5.42;71.61;101669.25;4834785;29;20033;-91
2021/12/19 09:13:28;;;;;;;8.75;5.25;;;;;;;5.60;71.81;101695.84;4839979;29;20041;-91
2021/12/19 09:16:09;;;;;;;9.77;5.03;;;;;;;5.43;71.55;101646.84;4746056;30;20126;-90
2021/12/19 09:18:45;;;;;;;9.98;5.40;;;;;;;5.35;71.53;101640.06;4767824;30;20038;-91
2021/12/19 09:21:29;;;;;;;9.00;5.10;;;;;;;5.63;71.94;101682.25;4760538;30;20039;-92
2021/12/19 09:23:56;;;;;;;11.05;5.50;;;;;;;5.41;71.68;101633.72;4741106;30;20148;-90
2021/12/19 09:26:42;;;;;;;11.38;5.47;;;;;;;5.72;72.02;101671.03;4743429;30;20565;-89
2021/12/19 09:29:28;;;;;;;14.65;5.88;;;;;;;5.69;71.53;101657.81;4851525;29;20519;-89
2021/12/19 09:32:06;;;;;;;13.80;5.75;;;;;;;5.16;71.45;101555.56;4862507;29;20044;-89
2021/12/19 09:34:35;;;;;;;13.38;5.65;;;;;;;5.52;71.35;101603.59;4843899;29;20021;-89
2021/12/19 09:37:17;;;;;;;14.63;6.15;;;;;;;5.52;71.48;101598.41;4855370;29;20033;-89
2021/12/19 09:39:43;;;;;;;11.82;5.43;;;;;;;5.29;71.52;101576.59;4838562;29;20587;-90
2021/12/19 09:42:14;;;;;;;15.15;5.65;;;;;;;5.66;71.69;101635.91;4835954;29;20415;-90
2021/12/19 09:44:41;;;;;;;13.23;5.90;;;;;;;5.62;71.70;101626.94;4833718;29;20040;-91
2021/12/19 09:47:13;;;;;;;11.57;5.35;;;;;;;5.06;71.80;101533.16;4825991;29;20033;-90
2021/12/19 09:49:39;;;;;;;12.23;5.60;;;;;;;4.90;71.60;101499.81;4843031;29;20501;-90
2021/12/19 09:52:10;;;;;;;13.93;5.90;;;;;;;5.25;71.61;101558.97;4828499;29;20048;-89
2021/12/19 09:54:39;;;;;;;10.25;5.28;;;;;;;5.13;71.84;101532.00;4854896;29;20036;-89
2021/12/19 09:57:06;;;;;;;10.50;4.97;;;;;;;5.18;71.33;101535.88;4817399;29;20121;-90
2021/12/19 09:59:35;;;;;;;9.77;5.35;;;;;;;5.03;71.55;101514.75;4824361;29;20030;-91
2021/12/19 10:02:20;;;;;;;11.30;5.85;;;;;;;5.65;71.45;101613.34;4837895;29;20739;-90
2021/12/19 10:04:53;;;;;;;14.52;5.70;;;;;;;5.44;71.40;101568.34;4828543;29;20120;-90
2021/12/19 10:07:45;;;;;;;12.50;5.50;;;;;;;5.47;71.59;101569.53;4815731;29;20029;-90
2021/12/19 10:10:41;;;;;;;14.18;5.53;;;;;;;5.40;71.80;101559.41;4830471;29;20052;-90
2021/12/19 10:13:30;;;;;;;9.15;5.63;;;;;;;5.62;71.68;101577.72;4821903;29;20037;-91
2021/12/19 10:15:56;;;;;;;9.70;5.22;;;;;;;5.52;71.93;101554.38;4841288;29;20543;-90
2021/12/19 10:18:21;;;;;;;9.00;5.07;;;;;;;5.37;71.38;101530.63;4822835;29;20033;-90
2021/12/19 10:21:02;;;;;;;9.65;4.88;;;;;;;5.32;71.60;101510.31;4831919;29;20041;-90
2021/12/19 10:23:32;;;;;;;11.75;5.47;;;;;;;5.28;71.80;101503.94;4829357;29;20048;-90
2021/12/19 10:26:06;;;;;;;10.32;5.15;;;;;;;5.37;71.84;101512.50;4871766;29;20041;-89
2021/12/19 10:28:51;;;;;;;11.07;5.03;;;;;;;5.25;71.57;101485.56;4813931;29;20017;-90
2021/12/19 10:31:34;;;;;;;8.48;4.90;;;;;;;5.38;71.70;101484.94;4859650;29;20101;-90
2021/12/19 10:34:22;;;;;;;10.60;5.53;;;;;;;5.71;71.39;101526.72;4839081;29;20177;-89
2021/12/19 10:36:49;;;;;;;11.05;5.13;;;;;;;5.29;71.67;101464.31;4819813;29;20069;-90
2021/12/19 10:39:17;;;;;;;9.48;4.95;;;;;;;5.44;71.62;101490.63;4836745;29;20559;-89
2021/12/19 10:41:43;;;;;;;9.98;5.68;;;;;;;5.07;71.56;101415.88;4828875;29;20061;-89
2021/12/19 10:47:20;;;;;;;9.25;5.40;;;;;;;5.46;71.69;101469.28;4813749;29;20040;-89
2021/12/19 10:49:56;;;;;;;10.18;5.65;;;;;;;5.40;71.60;101440.28;4836198;29;20507;-91
2021/12/19 10:52:41;;;;;;;8.40;5.18;;;;;;;5.63;72.04;101478.50;4827005;29;20034;-89
2021/12/19 10:55:14;;;;;;;9.30;5.30;;;;;;;5.54;71.43;101441.44;4810337;29;20034;-91
2021/12/19 10:57:42;;;;;;;11.77;5.93;;;;;;;5.30;71.79;101407.50;4811489;29;20052;-91
2021/12/19 11:00:26;;;;;;;12.50;5.95;;;;;;;5.44;71.79;101420.69;4815476;29;20034;-90
2021/12/19 11:03:11;;;;;;;11.63;6.25;;;;;;;5.33;71.74;101393.88;4798946;29;20041;-91
2021/12/19 11:05:43;;;;;;;10.55;5.93;;;;;;;5.55;71.71;101425.13;4804802;29;20117;-90
2021/12/19 11:09:01;;;;;;;9.13;5.60;;;;;;;5.68;71.59;101429.66;4828252;29;20041;-91
2021/12/19 11:12:08;;;;;;;11.43;5.45;;;;;;;5.64;71.68;101419.81;4824408;29;20042;-91
2021/12/19 11:14:42;;;;;;;9.02;5.50;;;;;;;5.61;71.73;101406.56;4815864;29;20030;-91
2021/12/19 11:17:30;;;;;;;11.52;6.32;;;;;;;5.62;72.13;101404.13;4827011;29;20045;-91
2021/12/19 11:20:13;;;;;;;10.68;5.88;;;;;;;5.50;71.08;101359.97;4833360;29;20112;-90
2021/12/19 11:22:58;;;;;;;11.13;5.68;;;;;;;5.75;71.34;101399.97;4823578;29;20030;-90
2021/12/19 11:25:55;;;;;;;9.80;5.63;;;;;;;5.72;71.37;101393.75;4808799;29;20030;-91
2021/12/19 11:32:06;;;;;;;9.73;5.85;;;;;;;5.39;70.96;101318.41;4840172;29;20081;-91
2021/12/19 11:38:03;;;;;;;12.18;6.18;;;;;;;5.55;71.42;101342.22;4833627;29;20049;-90
2021/12/19 11:40:47;;;;;;;10.23;6.13;;;;;;;5.50;71.55;101331.47;4812117;29;20492;-92
2021/12/19 11:43:13;;;;;;;9.50;6.10;;;;;;;5.70;71.64;101364.22;4825330;29;20058;-91
2021/12/19 11:48:26;;;;;;;10.38;5.90;;;;;;;5.33;71.21;101269.59;4828848;29;20129;-89
2021/12/19 11:50:56;;;;;;;9.10;5.65;;;;;;;5.36;71.00;101262.09;4819955;29;20499;-89
2021/12/19 11:53:43;;;;;;;12.23;5.95;;;;;;;5.69;71.11;101315.78;4840289;29;20500;-89
2021/12/19 11:56:11;;;;;;;10.88;5.88;;;;;;;5.70;70.97;101307.22;4823642;29;20524;-89
2021/12/19 11:58:42;;;;;;;10.15;6.03;;;;;;;5.79;71.24;101329.47;4812932;29;20088;-90
2021/12/19 12:01:13;;;;;;;10.02;5.88;;;;;;;5.59;71.06;101284.72;4834866;29;20080;-89
2021/12/19 12:03:46;;;;;;;10.70;5.93;;;;;;;5.80;71.05;101315.72;4824428;29;20085;-88
2021/12/19 12:06:24;;;;;;;12.50;6.43;;;;;;;5.44;71.29;101252.34;4833206;29;20113;-89
2021/12/19 12:09:43;;;;;;;10.07;5.63;;;;;;;5.83;71.19;101301.34;4812591;29;20062;-90
2021/12/19 12:12:15;;;;;;;10.00;5.63;;;;;;;5.77;71.19;101295.66;4832473;29;20128;-90
2021/12/19 12:15:02;;;;;;;10.63;6.22;;;;;;;5.47;71.48;101247.44;4818539;29;20044;-89
2021/12/19 12:17:35;;;;;;;11.70;6.43;;;;;;;5.55;71.59;101261.91;4811421;29;20031;-90
2021/12/19 12:20:15;;;;;;;10.88;6.00;;;;;;;5.68;71.29;101279.38;4821092;29;20121;-90
2021/12/19 12:22:51;;;;;;;9.50;5.88;;;;;;;5.59;71.65;101253.63;4816100;29;20188;-85
2021/12/19 12:25:17;;;;;;;11.00;6.05;;;;;;;5.75;71.47;101283.34;4811274;29;20037;-86
2021/12/19 12:27:56;;;;;;;11.35;6.35;;;;;;;5.75;71.42;101281.66;4822251;29;20033;-86
2021/12/19 12:30:45;;;;;;;16.73;9.05;;;;;;;5.78;71.09;101293.97;4822865;29;20114;-85
2021/12/19 12:33:16;;;;;;;12.70;7.70;;;;;;;5.65;71.37;101259.31;4813344;29;20038;-86
2021/12/19 12:35:45;;;;;;;12.82;7.60;;;;;;;5.68;70.84;101254.34;4821683;29;20030;-86
2021/12/19 12:38:11;;;;;;;14.20;7.97;;;;;;;5.33;70.71;101197.06;4834923;29;20041;-86
2021/12/19 12:43:12;;;;;;;20.15;8.73;;;;;;;6.72;65.05;101277.31;4820949;29;20019;-89
2021/12/19 12:46:13;;;;;;;17.23;9.23;;;;;;;6.10;67.65;101232.69;4854214;29;20104;-89
2021/12/19 12:49:00;;;;;;;12.23;8.05;;;;;;;6.13;69.13;101263.13;4845180;29;20121;-88
2021/12/19 12:51:28;;;;;;;11.45;7.47;;;;;;;6.07;69.58;101263.53;4852032;29;20069;-88
2021/12/19 12:53:58;;;;;;;9.93;6.82;;;;;;;6.03;69.62;101266.72;4840019;29;20404;-89
2021/12/19 12:56:32;;;;;;;12.40;7.10;;;;;;;5.84;69.88;101240.03;4830661;29;20098;-89
2021/12/19 12:58:59;;;;;;;11.32;6.93;;;;;;;5.69;70.07;101206.94;4828532;29;20480;-88
2021/12/19 13:01:41;;;;;;;11.20;6.60;;;;;;;5.82;70.14;101211.44;4840852;29;20036;-89
2021/12/19 13:04:19;;;;;;;10.73;6.57;;;;;;;6.01;70.16;101241.41;4843223;29;20037;-88
2021/12/19 13:07:07;;;;;;;12.00;7.05;;;;;;;6.03;70.15;101239.84;4829740;29;20041;-89
2021/12/19 13:09:39;;;;;;;10.18;6.50;;;;;;;5.95;70.53;101235.75;4856154;29;20037;-88
2021/12/19 13:12:20;;;;;;;10.25;6.57;;;;;;;5.55;70.60;101175.53;4856758;29;20491;-89
2021/12/19 13:14:52;;;;;;;9.82;6.40;;;;;;;5.95;70.64;101238.34;4834303;29;20030;-88
2021/12/19 13:17:19;;;;;;;11.93;6.55;;;;;;;5.96;70.61;101238.47;4843639;29;20025;-89
2021/12/19 13:19:55;;;;;;;12.18;6.63;;;;;;;5.95;70.28;101234.06;4830794;29;20161;-90
2021/12/19 13:22:24;;;;;;;10.68;6.88;;;;;;;5.96;70.70;101224.59;4846139;29;20041;-88
2021/12/19 13:24:52;;;;;;;10.38;6.38;;;;;;;5.67;70.59;101164.47;4836050;29;20155;-89
2021/12/19 13:27:24;;;;;;;10.05;6.68;;;;;;;5.96;70.69;101224.59;4830851;29;20030;-88
2021/12/19 13:30:09;;;;;;;10.77;6.80;;;;;;;5.70;70.35;101171.56;4824415;29;20033;-89
2021/12/19 13:32:37;;;;;;;9.25;6.35;;;;;;;5.60;70.55;101158.66;4850317;29;20095;-91
2021/12/19 13:35:13;;;;;;;11.45;6.65;;;;;;;5.64;70.50;101155.53;4838108;29;20041;-90
2021/12/19 13:37:52;;;;;;;10.63;6.78;;;;;;;5.86;71.01;101191.81;4825221;29;20041;-89
2021/12/19 13:40:18;;;;;;;10.77;6.65;;;;;;;5.91;71.05;101190.50;4837907;29;20030;-89
2021/12/19 13:43:02;;;;;;;11.38;6.93;;;;;;;5.55;71.12;101132.41;4809228;29;20062;-90
2021/12/19 13:45:31;;;;;;;11.77;6.63;;;;;;;5.90;71.07;101176.66;4827113;29;20035;-91
2021/12/19 13:48:00;;;;;;;11.02;7.05;;;;;;;5.86;70.94;101163.31;4843902;29;20037;-90
2021/12/19 13:50:42;;;;;;;10.50;6.93;;;;;;;5.64;71.08;101140.88;4828050;29;20037;-90
2021/12/19 13:53:12;;;;;;;13.52;7.55;;;;;;;5.70;70.88;101140.47;4828402;29;20029;-90
2021/12/19 13:55:57;;;;;;;12.88;6.95;;;;;;;5.94;70.55;101169.13;4829524;29;20480;-89